Airport View

Enter AWOS ICAO identifier for current METAR.

ex. KFNL

KHVE 251055Z AUTO 24012G15KT 10SM CLR 17/00 A2972 RMK AO2

25 Oct 2020 11:07

Frequency: 120.0

Phone: 435-542-1020

Other Area AWOS: KCNY - KPUC - KBDG - KBCE

TAF KBCE 250537Z 2506/2606 25010KT P6SM SCT150 FM250900 20008KT P6SM SCT150 WS020/26040KT FM251500 28014G25KT P6SM SCT080 BKN120 FM252000 35015G30KT P6SM VCSH OVC050